sensor_id;sensor_type;location;lat;lon;timestamp;pressure;altitude;pressure_sealevel;temperature;humidity
34034;BME280;63481;52.588;22.472;2024-03-08T00:02:46;101154.34;;;-4.98;100.00
34034;BME280;63481;52.588;22.472;2024-03-08T00:07:47;101154.19;;;-4.90;100.00
34034;BME280;63481;52.588;22.472;2024-03-08T00:12:50;101153.21;;;-4.82;100.00
34034;BME280;63481;52.588;22.472;2024-03-08T00:17:53;101150.36;;;-4.86;100.00
34034;BME280;63481;52.588;22.472;2024-03-08T00:22:55;101147.45;;;-4.87;100.00
34034;BME280;63481;52.588;22.472;2024-03-08T00:27:59;101142.39;;;-4.87;100.00
34034;BME280;63481;52.588;22.472;2024-03-08T00:33:01;101143.38;;;-5.01;100.00
34034;BME280;63481;52.588;22.472;2024-03-08T00:38:03;101140.45;;;-5.13;100.00
34034;BME280;63481;52.588;22.472;2024-03-08T00:43:06;101143.70;;;-5.19;100.00
34034;BME280;63481;52.588;22.472;2024-03-08T00:48:08;101138.55;;;-5.14;100.00
34034;BME280;63481;52.588;22.472;2024-03-08T00:53:10;101140.10;;;-5.20;100.00
34034;BME280;63481;52.588;22.472;2024-03-08T00:58:13;101137.98;;;-5.28;100.00
34034;BME280;63481;52.588;22.472;2024-03-08T01:03:15;101135.63;;;-5.35;100.00
34034;BME280;63481;52.588;22.472;2024-03-08T01:08:17;101135.14;;;-5.36;100.00
34034;BME280;63481;52.588;22.472;2024-03-08T01:13:19;101133.42;;;-5.36;100.00
34034;BME280;63481;52.588;22.472;2024-03-08T01:18:20;101133.86;;;-5.39;100.00
34034;BME280;63481;52.588;22.472;2024-03-08T01:23:22;101125.50;;;-5.47;100.00
34034;BME280;63481;52.588;22.472;2024-03-08T01:28:26;101117.90;;;-5.51;100.00
34034;BME280;63481;52.588;22.472;2024-03-08T01:33:28;101115.09;;;-5.53;100.00
34034;BME280;63481;52.588;22.472;2024-03-08T01:38:30;101111.86;;;-5.51;100.00
34034;BME280;63481;52.588;22.472;2024-03-08T01:43:31;101102.17;;;-5.51;100.00
34034;BME280;63481;52.588;22.472;2024-03-08T01:48:34;101102.40;;;-5.59;100.00
34034;BME280;63481;52.588;22.472;2024-03-08T01:53:36;101100.89;;;-5.59;100.00
34034;BME280;63481;52.588;22.472;2024-03-08T01:58:38;101097.32;;;-5.64;100.00
34034;BME280;63481;52.588;22.472;2024-03-08T02:03:41;101096.34;;;-5.71;100.00
34034;BME280;63481;52.588;22.472;2024-03-08T02:08:46;101094.60;;;-5.80;100.00
34034;BME280;63481;52.588;22.472;2024-03-08T02:13:48;101093.06;;;-5.84;100.00
34034;BME280;63481;52.588;22.472;2024-03-08T02:18:50;101087.80;;;-5.85;100.00
34034;BME280;63481;52.588;22.472;2024-03-08T02:23:51;101088.84;;;-5.80;100.00
34034;BME280;63481;52.588;22.472;2024-03-08T02:28:53;101088.11;;;-5.79;100.00
34034;BME280;63481;52.588;22.472;2024-03-08T02:33:55;101083.92;;;-5.69;100.00
34034;BME280;63481;52.588;22.472;2024-03-08T02:38:58;101089.31;;;-5.69;100.00
34034;BME280;63481;52.588;22.472;2024-03-08T02:44:00;101087.48;;;-5.70;100.00
34034;BME280;63481;52.588;22.472;2024-03-08T02:49:02;101084.54;;;-5.83;100.00
34034;BME280;63481;52.588;22.472;2024-03-08T02:54:04;101085.27;;;-5.81;100.00
34034;BME280;63481;52.588;22.472;2024-03-08T02:59:05;101081.45;;;-5.77;100.00
34034;BME280;63481;52.588;22.472;2024-03-08T03:04:07;101077.14;;;-5.72;100.00
34034;BME280;63481;52.588;22.472;2024-03-08T03:09:09;101076.18;;;-5.82;100.00
34034;BME280;63481;52.588;22.472;2024-03-08T03:14:12;101077.52;;;-5.90;100.00
34034;BME280;63481;52.588;22.472;2024-03-08T03:19:13;101081.30;;;-5.90;100.00
34034;BME280;63481;52.588;22.472;2024-03-08T03:24:16;101083.13;;;-5.95;100.00
34034;BME280;63481;52.588;22.472;2024-03-08T03:29:19;101080.33;;;-6.04;100.00
34034;BME280;63481;52.588;22.472;2024-03-08T03:34:21;101078.48;;;-5.99;100.00
34034;BME280;63481;52.588;22.472;2024-03-08T03:39:24;101065.09;;;-5.97;100.00
34034;BME280;63481;52.588;22.472;2024-03-08T03:44:26;101068.14;;;-6.09;100.00
34034;BME280;63481;52.588;22.472;2024-03-08T03:49:27;101062.72;;;-6.05;100.00
34034;BME280;63481;52.588;22.472;2024-03-08T03:54:30;101058.97;;;-6.03;100.00
34034;BME280;63481;52.588;22.472;2024-03-08T03:59:32;101053.27;;;-6.07;100.00
34034;BME280;63481;52.588;22.472;2024-03-08T04:04:34;101054.95;;;-5.96;100.00
34034;BME280;63481;52.588;22.472;2024-03-08T04:09:36;101053.53;;;-5.86;100.00
34034;BME280;63481;52.588;22.472;2024-03-08T04:14:42;101052.57;;;-6.00;100.00
34034;BME280;63481;52.588;22.472;2024-03-08T04:19:44;101051.90;;;-6.17;100.00
34034;BME280;63481;52.588;22.472;2024-03-08T04:24:46;101055.33;;;-6.22;100.00
34034;BME280;63481;52.588;22.472;2024-03-08T04:29:47;101053.40;;;-6.22;100.00
34034;BME280;63481;52.588;22.472;2024-03-08T04:34:49;101054.27;;;-6.25;100.00
34034;BME280;63481;52.588;22.472;2024-03-08T04:39:51;101045.90;;;-6.30;100.00
34034;BME280;63481;52.588;22.472;2024-03-08T04:44:53;101044.98;;;-6.32;100.00
34034;BME280;63481;52.588;22.472;2024-03-08T04:49:55;101043.64;;;-6.21;100.00
34034;BME280;63481;52.588;22.472;2024-03-08T04:54:57;101042.31;;;-6.09;100.00
34034;BME280;63481;52.588;22.472;2024-03-08T04:59:59;101042.64;;;-5.74;100.00
34034;BME280;63481;52.588;22.472;2024-03-08T05:05:01;101044.35;;;-5.64;100.00
34034;BME280;63481;52.588;22.472;2024-03-08T05:10:03;101044.02;;;-5.71;100.00
34034;BME280;63481;52.588;22.472;2024-03-08T05:15:05;101045.17;;;-5.85;100.00
34034;BME280;63481;52.588;22.472;2024-03-08T05:20:09;101044.37;;;-5.92;100.00
34034;BME280;63481;52.588;22.472;2024-03-08T05:25:14;101046.55;;;-5.87;100.00
34034;BME280;63481;52.588;22.472;2024-03-08T05:30:15;101047.16;;;-5.81;100.00
34034;BME280;63481;52.588;22.472;2024-03-08T05:35:17;101042.13;;;-5.68;100.00
34034;BME280;63481;52.588;22.472;2024-03-08T05:40:19;101042.58;;;-5.57;100.00
34034;BME280;63481;52.588;22.472;2024-03-08T05:45:21;101040.10;;;-5.41;100.00
34034;BME280;63481;52.588;22.472;2024-03-08T05:50:22;101038.99;;;-5.21;100.00
34034;BME280;63481;52.588;22.472;2024-03-08T05:55:24;101042.38;;;-4.87;100.00
34034;BME280;63481;52.588;22.472;2024-03-08T06:00:26;101034.78;;;-4.33;100.00
34034;BME280;63481;52.588;22.472;2024-03-08T06:05:28;101034.99;;;-3.72;100.00
34034;BME280;63481;52.588;22.472;2024-03-08T06:10:30;101036.51;;;-3.41;100.00
34034;BME280;63481;52.588;22.472;2024-03-08T06:15:31;101037.88;;;-3.20;100.00
34034;BME280;63481;52.588;22.472;2024-03-08T06:20:33;101038.80;;;-3.02;100.00
34034;BME280;63481;52.588;22.472;2024-03-08T06:25:35;101036.90;;;-2.90;100.00
34034;BME280;63481;52.588;22.472;2024-03-08T06:30:37;101026.63;;;-2.16;100.00
34034;BME280;63481;52.588;22.472;2024-03-08T06:35:38;101025.96;;;-1.96;100.00
34034;BME280;63481;52.588;22.472;2024-03-08T06:40:40;101025.80;;;-1.70;100.00
34034;BME280;63481;52.588;22.472;2024-03-08T06:45:42;101016.95;;;-1.61;100.00
34034;BME280;63481;52.588;22.472;2024-03-08T06:50:49;101012.54;;;-1.41;100.00
34034;BME280;63481;52.588;22.472;2024-03-08T06:55:52;101012.69;;;-1.36;100.00
34034;BME280;63481;52.588;22.472;2024-03-08T07:00:54;101010.66;;;-1.13;100.00
34034;BME280;63481;52.588;22.472;2024-03-08T07:06:00;101005.48;;;-0.95;100.00
34034;BME280;63481;52.588;22.472;2024-03-08T07:11:04;101000.73;;;-0.83;100.00
34034;BME280;63481;52.588;22.472;2024-03-08T07:16:06;101005.12;;;-0.81;100.00
34034;BME280;63481;52.588;22.472;2024-03-08T07:21:09;101009.23;;;-0.57;100.00
34034;BME280;63481;52.588;22.472;2024-03-08T07:26:17;101004.81;;;-0.25;100.00
34034;BME280;63481;52.588;22.472;2024-03-08T07:31:20;101000.39;;;-0.07;100.00
34034;BME280;63481;52.588;22.472;2024-03-08T07:36:39;101001.95;;;0.16;100.00
34034;BME280;63481;52.588;22.472;2024-03-08T07:41:41;100998.66;;;0.37;100.00
34034;BME280;63481;52.588;22.472;2024-03-08T07:46:43;101001.02;;;0.57;100.00
34034;BME280;63481;52.588;22.472;2024-03-08T07:51:45;100999.97;;;0.76;100.00
34034;BME280;63481;52.588;22.472;2024-03-08T07:56:47;100993.61;;;0.96;100.00
34034;BME280;63481;52.588;22.472;2024-03-08T08:01:48;100991.27;;;1.22;100.00
34034;BME280;63481;52.588;22.472;2024-03-08T08:06:50;100992.96;;;1.51;100.00
34034;BME280;63481;52.588;22.472;2024-03-08T08:11:52;100992.14;;;1.53;100.00
34034;BME280;63481;52.588;22.472;2024-03-08T08:16:54;100990.98;;;1.64;100.00
34034;BME280;63481;52.588;22.472;2024-03-08T08:21:57;100985.24;;;2.00;100.00
34034;BME280;63481;52.588;22.472;2024-03-08T08:26:59;100980.40;;;2.22;100.00
34034;BME280;63481;52.588;22.472;2024-03-08T08:32:02;100980.36;;;2.39;100.00
34034;BME280;63481;52.588;22.472;2024-03-08T08:37:05;100972.45;;;2.45;100.00
34034;BME280;63481;52.588;22.472;2024-03-08T08:42:08;100969.04;;;2.88;100.00
34034;BME280;63481;52.588;22.472;2024-03-08T08:47:10;100971.04;;;3.06;100.00
34034;BME280;63481;52.588;22.472;2024-03-08T08:52:12;100964.86;;;3.14;100.00
34034;BME280;63481;52.588;22.472;2024-03-08T08:57:14;100961.08;;;3.41;100.00
34034;BME280;63481;52.588;22.472;2024-03-08T09:02:16;100956.79;;;3.48;95.99
34034;BME280;63481;52.588;22.472;2024-03-08T09:07:18;100958.17;;;3.67;94.50
34034;BME280;63481;52.588;22.472;2024-03-08T09:12:20;100959.27;;;3.57;84.44
34034;BME280;63481;52.588;22.472;2024-03-08T09:17:22;100956.31;;;3.97;75.05
34034;BME280;63481;52.588;22.472;2024-03-08T09:22:23;100950.41;;;4.14;71.38
34034;BME280;63481;52.588;22.472;2024-03-08T09:27:25;100941.08;;;4.25;65.18
34034;BME280;63481;52.588;22.472;2024-03-08T09:32:27;100935.98;;;4.28;61.42
34034;BME280;63481;52.588;22.472;2024-03-08T09:37:29;100924.85;;;4.29;63.73
34034;BME280;63481;52.588;22.472;2024-03-08T09:42:30;100918.83;;;4.44;68.61
34034;BME280;63481;52.588;22.472;2024-03-08T09:47:33;100913.77;;;4.52;73.58
34034;BME280;63481;52.588;22.472;2024-03-08T09:52:36;100908.17;;;4.78;74.00
34034;BME280;63481;52.588;22.472;2024-03-08T09:57:40;100907.36;;;4.90;74.78
34034;BME280;63481;52.588;22.472;2024-03-08T10:02:41;100909.84;;;5.00;73.10
34034;BME280;63481;52.588;22.472;2024-03-08T10:07:43;100904.29;;;5.11;67.97
34034;BME280;63481;52.588;22.472;2024-03-08T10:12:46;100895.46;;;5.26;70.62
34034;BME280;63481;52.588;22.472;2024-03-08T10:17:47;100894.34;;;5.39;66.89
34034;BME280;63481;52.588;22.472;2024-03-08T10:22:50;100897.88;;;5.49;64.75
34034;BME280;63481;52.588;22.472;2024-03-08T10:27:52;100890.31;;;5.52;59.77
34034;BME280;63481;52.588;22.472;2024-03-08T10:32:54;100889.55;;;5.56;60.59
34034;BME280;63481;52.588;22.472;2024-03-08T10:37:56;100886.71;;;5.67;59.34
34034;BME280;63481;52.588;22.472;2024-03-08T10:43:01;100881.59;;;5.92;57.85
34034;BME280;63481;52.588;22.472;2024-03-08T10:48:26;100878.08;;;6.02;55.38
34034;BME280;63481;52.588;22.472;2024-03-08T10:53:38;100874.74;;;6.06;56.64
34034;BME280;63481;52.588;22.472;2024-03-08T10:58:43;100861.67;;;6.10;53.15
34034;BME280;63481;52.588;22.472;2024-03-08T11:03:47;100864.49;;;6.15;53.41
34034;BME280;63481;52.588;22.472;2024-03-08T11:08:51;100857.19;;;6.51;51.13
34034;BME280;63481;52.588;22.472;2024-03-08T11:13:57;100855.14;;;6.55;51.28
34034;BME280;63481;52.588;22.472;2024-03-08T11:36:25;100841.51;;;6.86;50.01
34034;BME280;63481;52.588;22.472;2024-03-08T11:41:26;100838.54;;;6.76;50.91
34034;BME280;63481;52.588;22.472;2024-03-08T11:46:28;100832.73;;;7.00;48.17
34034;BME280;63481;52.588;22.472;2024-03-08T11:51:31;100832.27;;;6.91;45.77
34034;BME280;63481;52.588;22.472;2024-03-08T11:56:33;100829.95;;;7.45;45.43
34034;BME280;63481;52.588;22.472;2024-03-08T12:01:35;100821.27;;;7.81;47.29
34034;BME280;63481;52.588;22.472;2024-03-08T12:06:40;100818.75;;;7.73;47.31
34034;BME280;63481;52.588;22.472;2024-03-08T12:11:42;100818.94;;;7.67;47.38
34034;BME280;63481;52.588;22.472;2024-03-08T12:16:44;100810.63;;;7.78;45.64
34034;BME280;63481;52.588;22.472;2024-03-08T12:21:46;100803.18;;;7.76;44.28
34034;BME280;63481;52.588;22.472;2024-03-08T12:26:51;100792.59;;;7.87;44.50
34034;BME280;63481;52.588;22.472;2024-03-08T12:31:59;100794.85;;;7.89;44.84
34034;BME280;63481;52.588;22.472;2024-03-08T12:37:02;100789.45;;;7.65;45.88
34034;BME280;63481;52.588;22.472;2024-03-08T12:42:04;100782.36;;;7.80;45.35
34034;BME280;63481;52.588;22.472;2024-03-08T12:47:06;100773.58;;;8.21;45.79
34034;BME280;63481;52.588;22.472;2024-03-08T12:52:10;100765.91;;;8.62;45.21
34034;BME280;63481;52.588;22.472;2024-03-08T12:57:11;100757.34;;;10.52;41.18
34034;BME280;63481;52.588;22.472;2024-03-08T13:02:14;100739.04;;;12.80;36.37
34034;BME280;63481;52.588;22.472;2024-03-08T13:07:18;100732.23;;;13.95;34.48
34034;BME280;63481;52.588;22.472;2024-03-08T13:12:21;100723.81;;;15.06;32.08
34034;BME280;63481;52.588;22.472;2024-03-08T13:17:23;100721.27;;;14.62;31.69
34034;BME280;63481;52.588;22.472;2024-03-08T13:22:24;100721.17;;;12.93;34.54
34034;BME280;63481;52.588;22.472;2024-03-08T13:27:29;100718.59;;;12.93;35.17
34034;BME280;63481;52.588;22.472;2024-03-08T13:32:31;100715.65;;;12.78;34.04
34034;BME280;63481;52.588;22.472;2024-03-08T13:37:33;100706.95;;;13.66;32.62
34034;BME280;63481;52.588;22.472;2024-03-08T13:42:35;100700.38;;;13.24;33.70
34034;BME280;63481;52.588;22.472;2024-03-08T13:47:40;100693.37;;;14.27;32.33
34034;BME280;63481;52.588;22.472;2024-03-08T13:52:42;100695.76;;;13.01;35.39
34034;BME280;63481;52.588;22.472;2024-03-08T13:57:47;100679.20;;;15.35;31.70
34034;BME280;63481;52.588;22.472;2024-03-08T14:02:49;100665.91;;;16.95;29.33
34034;BME280;63481;52.588;22.472;2024-03-08T14:07:52;100677.14;;;15.16;31.02
34034;BME280;63481;52.588;22.472;2024-03-08T14:12:55;100677.75;;;15.05;31.77
34034;BME280;63481;52.588;22.472;2024-03-08T14:17:57;100668.15;;;16.44;30.11
34034;BME280;63481;52.588;22.472;2024-03-08T14:22:59;100664.66;;;16.33;29.33
34034;BME280;63481;52.588;22.472;2024-03-08T14:28:01;100658.38;;;17.11;28.43
34034;BME280;63481;52.588;22.472;2024-03-08T14:33:08;100666.66;;;15.26;31.15
34034;BME280;63481;52.588;22.472;2024-03-08T14:38:10;100677.16;;;12.37;34.47
34034;BME280;63481;52.588;22.472;2024-03-08T14:43:13;100677.09;;;11.64;36.52
34034;BME280;63481;52.588;22.472;2024-03-08T15:00:07;100654.47;;;14.11;33.67
34034;BME280;63481;52.588;22.472;2024-03-08T15:05:17;100661.70;;;12.45;34.72
34034;BME280;63481;52.588;22.472;2024-03-08T15:10:22;100676.48;;;9.65;39.12
34034;BME280;63481;52.588;22.472;2024-03-08T15:15:27;100663.27;;;10.99;38.09
34034;BME280;63481;52.588;22.472;2024-03-08T15:20:31;100651.27;;;12.45;35.44
34034;BME280;63481;52.588;22.472;2024-03-08T15:25:36;100648.77;;;11.93;35.79
34034;BME280;63481;52.588;22.472;2024-03-08T15:30:40;100662.66;;;9.59;39.96
34034;BME280;63481;52.588;22.472;2024-03-08T15:35:46;100657.70;;;10.29;39.64
34034;BME280;63481;52.588;22.472;2024-03-08T15:40:51;100645.19;;;11.16;38.00
34034;BME280;63481;52.588;22.472;2024-03-08T15:45:53;100643.30;;;10.43;39.05
34034;BME280;63481;52.588;22.472;2024-03-08T15:50:56;100647.30;;;9.44;41.67
34034;BME280;63481;52.588;22.472;2024-03-08T15:55:58;100646.09;;;9.25;43.41
34034;BME280;63481;52.588;22.472;2024-03-08T16:01:00;100649.84;;;8.57;44.67
34034;BME280;63481;52.588;22.472;2024-03-08T16:06:02;100651.39;;;7.79;48.01
34034;BME280;63481;52.588;22.472;2024-03-08T16:11:06;100659.94;;;6.63;53.17
34034;BME280;63481;52.588;22.472;2024-03-08T16:16:08;100662.91;;;6.08;58.19
34034;BME280;63481;52.588;22.472;2024-03-08T16:21:10;100664.68;;;5.58;62.61
34034;BME280;63481;52.588;22.472;2024-03-08T16:26:13;100666.64;;;5.13;64.91
34034;BME280;63481;52.588;22.472;2024-03-08T16:31:15;100661.88;;;4.87;67.26
34034;BME280;63481;52.588;22.472;2024-03-08T16:36:17;100664.98;;;4.18;75.06
34034;BME280;63481;52.588;22.472;2024-03-08T16:41:19;100667.04;;;3.65;86.33
34034;BME280;63481;52.588;22.472;2024-03-08T16:46:22;100673.05;;;3.23;91.98
34034;BME280;63481;52.588;22.472;2024-03-08T16:51:24;100675.98;;;2.95;95.18
34034;BME280;63481;52.588;22.472;2024-03-08T16:56:27;100673.23;;;2.62;93.88
34034;BME280;63481;52.588;22.472;2024-03-08T17:01:28;100678.90;;;2.29;97.00
34034;BME280;63481;52.588;22.472;2024-03-08T17:06:30;100681.89;;;2.11;100.00
34034;BME280;63481;52.588;22.472;2024-03-08T17:11:32;100679.03;;;1.91;100.00
34034;BME280;63481;52.588;22.472;2024-03-08T17:16:35;100681.63;;;1.66;100.00
34034;BME280;63481;52.588;22.472;2024-03-08T17:21:39;100679.11;;;1.56;100.00
34034;BME280;63481;52.588;22.472;2024-03-08T17:26:40;100677.30;;;1.31;100.00
34034;BME280;63481;52.588;22.472;2024-03-08T17:31:42;100669.86;;;1.01;100.00
34034;BME280;63481;52.588;22.472;2024-03-08T17:36:46;100673.68;;;0.83;100.00
34034;BME280;63481;52.588;22.472;2024-03-08T17:41:48;100674.15;;;0.66;100.00
34034;BME280;63481;52.588;22.472;2024-03-08T17:46:50;100675.59;;;0.56;100.00
34034;BME280;63481;52.588;22.472;2024-03-08T17:51:52;100671.92;;;0.39;100.00
34034;BME280;63481;52.588;22.472;2024-03-08T17:56:54;100669.92;;;0.26;100.00
34034;BME280;63481;52.588;22.472;2024-03-08T18:01:56;100670.96;;;0.20;100.00
34034;BME280;63481;52.588;22.472;2024-03-08T18:06:59;100671.13;;;0.10;100.00
34034;BME280;63481;52.588;22.472;2024-03-08T18:12:00;100667.15;;;-0.05;100.00
34034;BME280;63481;52.588;22.472;2024-03-08T18:17:03;100665.33;;;-0.04;100.00
34034;BME280;63481;52.588;22.472;2024-03-08T18:22:07;100663.66;;;-0.24;100.00
34034;BME280;63481;52.588;22.472;2024-03-08T18:27:10;100661.97;;;-0.39;100.00
34034;BME280;63481;52.588;22.472;2024-03-08T18:32:11;100665.94;;;-0.53;100.00
34034;BME280;63481;52.588;22.472;2024-03-08T18:37:13;100666.65;;;-0.56;100.00
34034;BME280;63481;52.588;22.472;2024-03-08T18:42:15;100666.63;;;-0.57;100.00
34034;BME280;63481;52.588;22.472;2024-03-08T18:47:17;100672.96;;;-0.77;100.00
34034;BME280;63481;52.588;22.472;2024-03-08T18:52:19;100674.39;;;-0.84;100.00
34034;BME280;63481;52.588;22.472;2024-03-08T18:57:21;100677.67;;;-0.98;100.00
34034;BME280;63481;52.588;22.472;2024-03-08T19:02:23;100673.84;;;-1.03;100.00
34034;BME280;63481;52.588;22.472;2024-03-08T19:07:25;100677.34;;;-1.40;100.00
34034;BME280;63481;52.588;22.472;2024-03-08T19:12:30;100674.86;;;-1.55;100.00
34034;BME280;63481;52.588;22.472;2024-03-08T19:17:36;100677.12;;;-1.62;100.00
34034;BME280;63481;52.588;22.472;2024-03-08T19:22:39;100675.92;;;-1.69;100.00
34034;BME280;63481;52.588;22.472;2024-03-08T19:27:41;100673.61;;;-1.68;100.00
34034;BME280;63481;52.588;22.472;2024-03-08T19:32:44;100673.48;;;-1.75;100.00
34034;BME280;63481;52.588;22.472;2024-03-08T19:37:46;100674.45;;;-1.86;100.00
34034;BME280;63481;52.588;22.472;2024-03-08T19:42:53;100677.86;;;-1.98;100.00
34034;BME280;63481;52.588;22.472;2024-03-08T19:48:00;100680.38;;;-2.08;100.00
34034;BME280;63481;52.588;22.472;2024-03-08T19:53:02;100678.05;;;-2.17;100.00
34034;BME280;63481;52.588;22.472;2024-03-08T19:58:08;100673.27;;;-2.25;100.00
34034;BME280;63481;52.588;22.472;2024-03-08T20:03:31;100670.70;;;-2.30;100.00
34034;BME280;63481;52.588;22.472;2024-03-08T20:08:33;100670.79;;;-2.36;100.00
34034;BME280;63481;52.588;22.472;2024-03-08T20:13:36;100673.16;;;-2.45;100.00
34034;BME280;63481;52.588;22.472;2024-03-08T20:18:37;100670.84;;;-2.49;100.00
34034;BME280;63481;52.588;22.472;2024-03-08T20:23:57;100671.56;;;-2.51;100.00
34034;BME280;63481;52.588;22.472;2024-03-08T20:29:16;100669.19;;;-2.54;100.00
34034;BME280;63481;52.588;22.472;2024-03-08T20:34:35;100672.48;;;-2.57;100.00
34034;BME280;63481;52.588;22.472;2024-03-08T20:39:38;100670.73;;;-2.61;100.00
34034;BME280;63481;52.588;22.472;2024-03-08T20:44:40;100670.20;;;-2.70;100.00
34034;BME280;63481;52.588;22.472;2024-03-08T20:49:41;100670.91;;;-2.64;100.00
34034;BME280;63481;52.588;22.472;2024-03-08T20:54:45;100669.81;;;-2.72;100.00
34034;BME280;63481;52.588;22.472;2024-03-08T20:59:49;100662.83;;;-2.77;100.00
34034;BME280;63481;52.588;22.472;2024-03-08T21:04:50;100662.93;;;-2.85;100.00
34034;BME280;63481;52.588;22.472;2024-03-08T21:09:53;100661.85;;;-2.94;100.00
34034;BME280;63481;52.588;22.472;2024-03-08T21:14:56;100661.08;;;-3.00;100.00
34034;BME280;63481;52.588;22.472;2024-03-08T21:19:58;100664.09;;;-3.08;100.00
34034;BME280;63481;52.588;22.472;2024-03-08T21:24:59;100666.59;;;-3.12;100.00
34034;BME280;63481;52.588;22.472;2024-03-08T21:30:01;100666.45;;;-3.19;100.00
34034;BME280;63481;52.588;22.472;2024-03-08T21:35:03;100661.50;;;-3.18;100.00
34034;BME280;63481;52.588;22.472;2024-03-08T21:40:06;100655.05;;;-3.20;100.00
34034;BME280;63481;52.588;22.472;2024-03-08T21:45:11;100647.86;;;-3.34;100.00
34034;BME280;63481;52.588;22.472;2024-03-08T21:50:13;100642.07;;;-3.43;100.00
34034;BME280;63481;52.588;22.472;2024-03-08T21:55:18;100647.48;;;-3.48;100.00
34034;BME280;63481;52.588;22.472;2024-03-08T22:00:20;100642.48;;;-3.37;100.00
34034;BME280;63481;52.588;22.472;2024-03-08T22:05:24;100640.84;;;-3.11;100.00
34034;BME280;63481;52.588;22.472;2024-03-08T22:10:26;100636.34;;;-3.43;100.00
34034;BME280;63481;52.588;22.472;2024-03-08T22:15:30;100639.79;;;-3.54;100.00
34034;BME280;63481;52.588;22.472;2024-03-08T22:20:32;100640.48;;;-3.67;100.00
34034;BME280;63481;52.588;22.472;2024-03-08T22:25:34;100638.39;;;-3.80;100.00
34034;BME280;63481;52.588;22.472;2024-03-08T22:30:36;100636.70;;;-3.75;100.00
34034;BME280;63481;52.588;22.472;2024-03-08T22:35:38;100635.77;;;-3.87;100.00
34034;BME280;63481;52.588;22.472;2024-03-08T22:40:40;100636.11;;;-3.82;100.00
34034;BME280;63481;52.588;22.472;2024-03-08T22:45:42;100632.42;;;-3.81;100.00
34034;BME280;63481;52.588;22.472;2024-03-08T22:50:44;100628.62;;;-3.96;100.00
34034;BME280;63481;52.588;22.472;2024-03-08T22:55:46;100630.20;;;-4.04;100.00
34034;BME280;63481;52.588;22.472;2024-03-08T23:00:48;100633.18;;;-4.09;100.00
34034;BME280;63481;52.588;22.472;2024-03-08T23:05:58;100632.16;;;-4.10;100.00
34034;BME280;63481;52.588;22.472;2024-03-08T23:11:00;100635.08;;;-4.14;100.00
34034;BME280;63481;52.588;22.472;2024-03-08T23:16:03;100630.70;;;-4.11;100.00
34034;BME280;63481;52.588;22.472;2024-03-08T23:21:09;100627.91;;;-4.08;100.00
34034;BME280;63481;52.588;22.472;2024-03-08T23:26:10;100628.59;;;-4.08;100.00
34034;BME280;63481;52.588;22.472;2024-03-08T23:31:13;100630.55;;;-4.12;100.00
34034;BME280;63481;52.588;22.472;2024-03-08T23:36:16;100630.33;;;-4.18;100.00
34034;BME280;63481;52.588;22.472;2024-03-08T23:41:17;100631.28;;;-4.20;100.00
34034;BME280;63481;52.588;22.472;2024-03-08T23:46:19;100632.27;;;-4.24;100.00
34034;BME280;63481;52.588;22.472;2024-03-08T23:51:25;100631.29;;;-4.28;100.00
34034;BME280;63481;52.588;22.472;2024-03-08T23:56:26;100622.55;;;-4.32;100.00
